OMD2972 KMSY-KGYR
Flight info
| Callsign | OMD2972 |
|---|---|
| Flight time | 0h 56m |
| Altitude | 40000 |
| Route | LFT LCH IAH ELP SSO SUNSS8 |
| Aircraft | A346/H-SDE2E3FGHIJ3J4J5M1RWXY/LB1D1 |
Departure
| Time | 2026-04-29 22:36 |
|---|---|
| Airport | Louis Armstrong New Orleans International Airport (KMSY) |
Arrival
| Time | 2026-04-29 23:32 |
|---|---|
| Airport | Phoenix Goodyear Airport (KGYR) |
| Time | Latitude | Longitude | Altitude | Speed | Heading |
|---|---|---|---|---|---|
| 2026-04-29 22:11 | 29.99685 | -90.26253 | 20 ft | 0 kts | 17° |
| 2026-04-29 22:29 | 29.99687 | -90.26252 | 20 ft | 1 kts | 12° |
| 2026-04-29 22:29 | 29.99691 | -90.26256 | 20 ft | 1 kts | 311° |
| 2026-04-29 22:29 | 29.99692 | -90.26262 | 20 ft | 1 kts | 252° |
| 2026-04-29 22:29 | 29.99682 | -90.26281 | 20 ft | 6 kts | 239° |
| 2026-04-29 22:30 | 29.99650 | -90.26326 | 24 ft | 8 kts | 220° |
| 2026-04-29 22:30 | 29.99590 | -90.26361 | 24 ft | 11 kts | 198° |
| 2026-04-29 22:30 | 29.99517 | -90.26396 | 24 ft | 11 kts | 217° |
| 2026-04-29 22:30 | 29.99490 | -90.26486 | 23 ft | 14 kts | 275° |
| 2026-04-29 22:31 | 29.99514 | -90.26607 | 26 ft | 15 kts | 285° |
| 2026-04-29 22:31 | 29.99542 | -90.26722 | 26 ft | 16 kts | 285° |
| 2026-04-29 22:31 | 29.99575 | -90.26864 | 24 ft | 19 kts | 286° |
| 2026-04-29 22:31 | 29.99606 | -90.26989 | 23 ft | 17 kts | 286° |
| 2026-04-29 22:32 | 29.99641 | -90.27132 | 20 ft | 21 kts | 285° |
| 2026-04-29 22:32 | 29.99681 | -90.27301 | 18 ft | 19 kts | 285° |
| 2026-04-29 22:32 | 29.99713 | -90.27435 | 16 ft | 17 kts | 285° |
| 2026-04-29 22:32 | 29.99737 | -90.27532 | 15 ft | 12 kts | 285° |
| 2026-04-29 22:33 | 29.99755 | -90.27622 | 17 ft | 8 kts | 262° |
| 2026-04-29 22:33 | 29.99708 | -90.27671 | 16 ft | 11 kts | 203° |
| 2026-04-29 22:33 | 29.99687 | -90.27679 | 14 ft | 0 kts | 196° |
| 2026-04-29 22:34 | 29.99667 | -90.27685 | 14 ft | 5 kts | 196° |
| 2026-04-29 22:34 | 29.99617 | -90.27705 | 13 ft | 9 kts | 214° |
| 2026-04-29 22:34 | 29.99577 | -90.27737 | 13 ft | 2 kts | 169° |
| 2026-04-29 22:35 | 29.99557 | -90.27711 | 13 ft | 6 kts | 122° |
| 2026-04-29 22:35 | 29.99552 | -90.27696 | 13 ft | 2 kts | 107° |
| 2026-04-29 22:35 | 29.99551 | -90.27693 | 13 ft | 0 kts | 106° |
| 2026-04-29 22:35 | 29.99549 | -90.27686 | 14 ft | 3 kts | 107° |
| 2026-04-29 22:36 | 29.99469 | -90.27359 | 16 ft | 94 kts | 105° |
| 2026-04-29 22:36 | 29.99220 | -90.26284 | 69 ft | 174 kts | 109° |
| 2026-04-29 22:36 | 29.98889 | -90.24873 | 939 ft | 186 kts | 108° |
| 2026-04-29 22:36 | 29.98523 | -90.23405 | 2055 ft | 194 kts | 109° |
| 2026-04-29 22:37 | 29.97996 | -90.21987 | 3098 ft | 191 kts | 128° |
| 2026-04-29 22:37 | 29.96946 | -90.21070 | 3816 ft | 197 kts | 163° |
| 2026-04-29 22:37 | 29.95555 | -90.21091 | 4420 ft | 211 kts | 200° |
| 2026-04-29 22:37 | 29.94306 | -90.22080 | 5046 ft | 227 kts | 224° |
| 2026-04-29 22:38 | 29.93158 | -90.23444 | 5653 ft | 248 kts | 228° |
| 2026-04-29 22:38 | 29.91944 | -90.24958 | 6349 ft | 263 kts | 229° |
| 2026-04-29 22:38 | 29.90686 | -90.26530 | 7226 ft | 268 kts | 229° |
| 2026-04-29 22:38 | 29.89461 | -90.28157 | 8289 ft | 269 kts | 239° |
| 2026-04-29 22:39 | 29.88928 | -90.30170 | 9293 ft | 271 kts | 268° |
| 2026-04-29 22:39 | 29.89132 | -90.32342 | 10335 ft | 273 kts | 276° |
| 2026-04-29 22:39 | 29.89403 | -90.34559 | 11081 ft | 287 kts | 276° |
| 2026-04-29 22:39 | 29.89673 | -90.36917 | 11634 ft | 306 kts | 276° |
| 2026-04-29 22:40 | 29.89857 | -90.38594 | 12004 ft | 318 kts | 276° |
| 2026-04-29 22:40 | 29.90225 | -90.42088 | 12695 ft | 343 kts | 276° |
| 2026-04-29 22:40 | 29.90514 | -90.44897 | 13179 ft | 362 kts | 276° |
| 2026-04-29 22:40 | 29.90811 | -90.47828 | 13868 ft | 372 kts | 276° |
| 2026-04-29 22:41 | 29.91014 | -90.49841 | 14428 ft | 374 kts | 276° |
| 2026-04-29 22:41 | 29.91313 | -90.52829 | 15363 ft | 375 kts | 276° |
| 2026-04-29 22:41 | 29.91610 | -90.55828 | 16316 ft | 377 kts | 276° |
| 2026-04-29 22:41 | 29.91908 | -90.58836 | 17265 ft | 379 kts | 276° |
| 2026-04-29 22:42 | 29.92206 | -90.61866 | 18218 ft | 381 kts | 276° |
| 2026-04-29 22:42 | 29.92505 | -90.64911 | 19026 ft | 383 kts | 276° |
| 2026-04-29 22:42 | 29.92806 | -90.67984 | 19795 ft | 387 kts | 276° |
| 2026-04-29 22:42 | 29.93104 | -90.71043 | 20525 ft | 390 kts | 276° |
| 2026-04-29 22:43 | 29.93409 | -90.74173 | 21259 ft | 394 kts | 276° |
| 2026-04-29 22:43 | 29.93716 | -90.77335 | 21980 ft | 398 kts | 276° |
| 2026-04-29 22:43 | 29.94025 | -90.80527 | 22687 ft | 402 kts | 276° |
| 2026-04-29 22:43 | 29.94336 | -90.83756 | 23367 ft | 406 kts | 276° |
| 2026-04-29 22:44 | 29.94649 | -90.87014 | 23934 ft | 410 kts | 276° |
| 2026-04-29 22:44 | 29.94961 | -90.90300 | 24499 ft | 414 kts | 276° |
| 2026-04-29 22:44 | 29.95276 | -90.93616 | 25081 ft | 417 kts | 277° |
| 2026-04-29 22:44 | 29.95593 | -90.96956 | 25661 ft | 420 kts | 277° |
| 2026-04-29 22:45 | 29.95911 | -91.00314 | 26233 ft | 423 kts | 277° |
| 2026-04-29 22:45 | 29.96233 | -91.03708 | 26805 ft | 427 kts | 277° |
| 2026-04-29 22:45 | 29.96556 | -91.07128 | 27378 ft | 430 kts | 278° |
| 2026-04-29 22:45 | 29.96880 | -91.10570 | 27945 ft | 433 kts | 278° |
| 2026-04-29 22:46 | 29.97207 | -91.14042 | 28507 ft | 436 kts | 278° |
| 2026-04-29 22:46 | 29.97538 | -91.17545 | 29045 ft | 440 kts | 277° |
| 2026-04-29 22:46 | 29.97863 | -91.21069 | 29676 ft | 442 kts | 277° |
| 2026-04-29 22:46 | 29.98184 | -91.24592 | 30379 ft | 440 kts | 277° |
| 2026-04-29 22:47 | 29.98501 | -91.28097 | 31103 ft | 437 kts | 278° |
| 2026-04-29 22:47 | 29.98818 | -91.31579 | 31895 ft | 433 kts | 278° |
| 2026-04-29 22:47 | 29.99131 | -91.35021 | 32718 ft | 429 kts | 278° |
| 2026-04-29 22:47 | 29.99441 | -91.38429 | 33555 ft | 424 kts | 278° |
| 2026-04-29 22:48 | 29.99749 | -91.41800 | 34328 ft | 420 kts | 279° |
| 2026-04-29 22:48 | 30.00056 | -91.45132 | 34987 ft | 417 kts | 279° |
| 2026-04-29 22:48 | 30.00363 | -91.48461 | 35570 ft | 416 kts | 278° |
| 2026-04-29 22:48 | 30.00668 | -91.51784 | 36108 ft | 416 kts | 278° |
| 2026-04-29 22:49 | 30.00971 | -91.55104 | 36594 ft | 416 kts | 278° |
| 2026-04-29 22:49 | 30.01275 | -91.58442 | 36983 ft | 418 kts | 278° |
| 2026-04-29 22:49 | 30.01574 | -91.61745 | 37395 ft | 420 kts | 278° |
| 2026-04-29 22:49 | 30.01879 | -91.65144 | 37872 ft | 419 kts | 278° |
| 2026-04-29 22:50 | 30.02176 | -91.68450 | 38348 ft | 418 kts | 278° |
| 2026-04-29 22:50 | 30.02474 | -91.71792 | 38721 ft | 419 kts | 278° |
| 2026-04-29 22:50 | 30.02774 | -91.75151 | 39011 ft | 421 kts | 278° |
| 2026-04-29 22:50 | 30.03074 | -91.78516 | 39294 ft | 422 kts | 278° |
| 2026-04-29 22:51 | 30.03373 | -91.81889 | 39604 ft | 422 kts | 278° |
| 2026-04-29 22:51 | 30.03671 | -91.85263 | 39877 ft | 423 kts | 278° |
| 2026-04-29 22:51 | 30.04267 | -91.92035 | 39921 ft | 423 kts | 278° |
| 2026-04-29 22:52 | 30.04857 | -91.98778 | 39922 ft | 421 kts | 278° |
| 2026-04-29 22:52 | 30.05442 | -92.05506 | 39894 ft | 421 kts | 278° |
| 2026-04-29 22:53 | 30.06025 | -92.12239 | 39894 ft | 421 kts | 278° |
| 2026-04-29 22:53 | 31.81168 | -106.24858 | 39159 ft | 471 kts | 276° |
| 2026-04-29 22:53 | 31.81544 | -106.28512 | 40086 ft | 426 kts | 275° |
| 2026-04-29 22:54 | 31.81882 | -106.31820 | 40971 ft | 393 kts | 275° |
| 2026-04-29 22:54 | 31.82289 | -106.34969 | 41149 ft | 387 kts | 279° |
| 2026-04-29 22:54 | 31.82868 | -106.38047 | 40906 ft | 383 kts | 280° |
| 2026-04-29 22:54 | 31.83461 | -106.41107 | 40653 ft | 382 kts | 279° |
| 2026-04-29 22:55 | 31.84031 | -106.44161 | 40403 ft | 382 kts | 279° |
| 2026-04-29 22:55 | 31.84574 | -106.47193 | 40161 ft | 382 kts | 279° |
| 2026-04-29 22:55 | 31.85108 | -106.50255 | 40002 ft | 382 kts | 279° |
| 2026-04-29 22:55 | 31.85632 | -106.53320 | 39982 ft | 382 kts | 279° |
| 2026-04-29 22:56 | 31.86734 | -106.59920 | 40013 ft | 382 kts | 278° |
| 2026-04-29 22:56 | 31.88738 | -106.72203 | 40003 ft | 382 kts | 278° |
| 2026-04-29 22:57 | 31.90716 | -106.84522 | 39988 ft | 383 kts | 278° |
| 2026-04-29 22:57 | 31.91702 | -106.90703 | 39829 ft | 383 kts | 278° |
| 2026-04-29 22:57 | 31.92684 | -106.96876 | 39824 ft | 383 kts | 278° |
| 2026-04-29 22:58 | 31.94008 | -107.05235 | 39823 ft | 383 kts | 278° |
| 2026-04-29 22:58 | 31.95290 | -107.13357 | 39822 ft | 383 kts | 278° |
| 2026-04-29 22:59 | 31.97235 | -107.25766 | 39851 ft | 382 kts | 278° |
| 2026-04-29 22:59 | 31.99158 | -107.38100 | 39844 ft | 382 kts | 278° |
| 2026-04-29 23:00 | 32.01069 | -107.50435 | 39893 ft | 383 kts | 278° |
| 2026-04-29 23:00 | 32.04631 | -107.68107 | 39969 ft | 384 kts | 281° |
| 2026-04-29 23:01 | 32.13266 | -108.09075 | 39891 ft | 384 kts | 280° |
| 2026-04-29 23:01 | 32.21767 | -108.50191 | 39983 ft | 387 kts | 280° |
| 2026-04-29 23:02 | 32.30179 | -108.91600 | 39875 ft | 388 kts | 280° |
| 2026-04-29 23:02 | 32.38443 | -109.33014 | 39858 ft | 387 kts | 279° |
| 2026-04-29 23:03 | 32.46686 | -109.75099 | 39874 ft | 393 kts | 278° |
| 2026-04-29 23:03 | 32.52719 | -110.06422 | 39884 ft | 393 kts | 278° |
| 2026-04-29 23:04 | 32.53930 | -110.12750 | 39598 ft | 392 kts | 278° |
| 2026-04-29 23:04 | 32.54533 | -110.15895 | 39370 ft | 389 kts | 277° |
| 2026-04-29 23:04 | 32.55130 | -110.19011 | 39153 ft | 386 kts | 277° |
| 2026-04-29 23:05 | 32.55724 | -110.22114 | 38920 ft | 383 kts | 277° |
| 2026-04-29 23:05 | 32.56307 | -110.25183 | 38689 ft | 380 kts | 277° |
| 2026-04-29 23:05 | 32.56885 | -110.28241 | 38422 ft | 379 kts | 277° |
| 2026-04-29 23:05 | 32.57463 | -110.31297 | 38149 ft | 379 kts | 277° |
| 2026-04-29 23:06 | 32.58039 | -110.34356 | 37878 ft | 380 kts | 276° |
| 2026-04-29 23:06 | 32.58617 | -110.37421 | 37613 ft | 381 kts | 276° |
| 2026-04-29 23:06 | 32.59196 | -110.40494 | 37342 ft | 382 kts | 276° |
| 2026-04-29 23:06 | 32.59776 | -110.43574 | 37074 ft | 383 kts | 276° |
| 2026-04-29 23:07 | 32.60355 | -110.46661 | 36830 ft | 383 kts | 276° |
| 2026-04-29 23:07 | 32.60937 | -110.49757 | 36576 ft | 384 kts | 276° |
| 2026-04-29 23:07 | 32.61518 | -110.52857 | 36329 ft | 385 kts | 276° |
| 2026-04-29 23:07 | 32.62100 | -110.55967 | 36079 ft | 386 kts | 276° |
| 2026-04-29 23:08 | 32.62684 | -110.59090 | 35837 ft | 387 kts | 276° |
| 2026-04-29 23:08 | 32.63267 | -110.62219 | 35598 ft | 388 kts | 276° |
| 2026-04-29 23:08 | 32.63850 | -110.65354 | 35358 ft | 389 kts | 276° |
| 2026-04-29 23:08 | 32.64434 | -110.68500 | 35116 ft | 390 kts | 276° |
| 2026-04-29 23:09 | 32.65018 | -110.71648 | 34880 ft | 391 kts | 276° |
| 2026-04-29 23:09 | 32.65603 | -110.74806 | 34646 ft | 392 kts | 276° |
| 2026-04-29 23:09 | 32.66182 | -110.77929 | 34411 ft | 393 kts | 276° |
| 2026-04-29 23:09 | 32.66771 | -110.81109 | 34180 ft | 394 kts | 276° |
| 2026-04-29 23:10 | 32.67358 | -110.84292 | 33944 ft | 395 kts | 276° |
| 2026-04-29 23:10 | 32.67946 | -110.87489 | 33682 ft | 396 kts | 276° |
| 2026-04-29 23:10 | 32.68533 | -110.90685 | 33474 ft | 395 kts | 276° |
| 2026-04-29 23:10 | 32.69115 | -110.93852 | 33222 ft | 391 kts | 276° |
| 2026-04-29 23:11 | 32.69696 | -110.97016 | 32867 ft | 391 kts | 276° |
| 2026-04-29 23:11 | 32.70275 | -111.00179 | 32303 ft | 392 kts | 277° |
| 2026-04-29 23:11 | 32.70853 | -111.03349 | 31606 ft | 393 kts | 277° |
| 2026-04-29 23:11 | 32.71432 | -111.06529 | 30836 ft | 394 kts | 277° |
| 2026-04-29 23:12 | 32.72013 | -111.09722 | 30000 ft | 396 kts | 278° |
| 2026-04-29 23:12 | 32.72596 | -111.12930 | 29044 ft | 398 kts | 278° |
| 2026-04-29 23:12 | 32.73183 | -111.16152 | 28117 ft | 400 kts | 278° |
| 2026-04-29 23:12 | 32.73772 | -111.19379 | 27446 ft | 396 kts | 278° |
| 2026-04-29 23:13 | 32.74351 | -111.22557 | 26936 ft | 390 kts | 278° |
| 2026-04-29 23:13 | 32.74922 | -111.25694 | 26322 ft | 387 kts | 278° |
| 2026-04-29 23:13 | 32.75487 | -111.28822 | 25639 ft | 386 kts | 278° |
| 2026-04-29 23:13 | 32.76053 | -111.31958 | 24815 ft | 388 kts | 278° |
| 2026-04-29 23:14 | 32.76618 | -111.35101 | 24128 ft | 389 kts | 279° |
| 2026-04-29 23:14 | 32.77184 | -111.38252 | 23455 ft | 389 kts | 279° |
| 2026-04-29 23:14 | 32.77752 | -111.41410 | 22690 ft | 388 kts | 279° |
| 2026-04-29 23:14 | 32.78309 | -111.44501 | 22058 ft | 385 kts | 279° |
| 2026-04-29 23:15 | 32.78865 | -111.47597 | 21463 ft | 381 kts | 279° |
| 2026-04-29 23:15 | 32.79415 | -111.50665 | 20906 ft | 377 kts | 279° |
| 2026-04-29 23:15 | 32.79959 | -111.53705 | 20351 ft | 373 kts | 279° |
| 2026-04-29 23:15 | 32.80496 | -111.56713 | 19819 ft | 370 kts | 279° |
| 2026-04-29 23:16 | 32.81028 | -111.59698 | 19313 ft | 367 kts | 278° |
| 2026-04-29 23:16 | 32.81556 | -111.62663 | 18793 ft | 364 kts | 278° |
| 2026-04-29 23:16 | 32.82078 | -111.65604 | 18272 ft | 362 kts | 278° |
| 2026-04-29 23:16 | 32.82595 | -111.68523 | 17683 ft | 359 kts | 278° |
| 2026-04-29 23:17 | 32.83107 | -111.71428 | 17130 ft | 357 kts | 279° |
| 2026-04-29 23:17 | 32.83614 | -111.74307 | 16574 ft | 354 kts | 279° |
| 2026-04-29 23:17 | 32.84119 | -111.77168 | 16047 ft | 353 kts | 279° |
| 2026-04-29 23:17 | 32.84622 | -111.80025 | 15513 ft | 351 kts | 279° |
| 2026-04-29 23:18 | 32.85121 | -111.82863 | 15028 ft | 349 kts | 279° |
| 2026-04-29 23:18 | 32.85617 | -111.85681 | 14574 ft | 346 kts | 279° |
| 2026-04-29 23:18 | 32.86106 | -111.88466 | 14120 ft | 343 kts | 279° |
| 2026-04-29 23:18 | 32.86591 | -111.91235 | 13653 ft | 340 kts | 280° |
| 2026-04-29 23:19 | 32.87074 | -111.93984 | 13159 ft | 337 kts | 280° |
| 2026-04-29 23:19 | 32.87552 | -111.96712 | 12637 ft | 336 kts | 279° |
| 2026-04-29 23:19 | 32.88027 | -111.99433 | 12117 ft | 335 kts | 279° |
| 2026-04-29 23:19 | 32.88501 | -112.02146 | 11602 ft | 334 kts | 279° |
| 2026-04-29 23:20 | 32.88970 | -112.04838 | 11235 ft | 327 kts | 279° |
| 2026-04-29 23:20 | 32.89423 | -112.07444 | 11028 ft | 315 kts | 279° |
| 2026-04-29 23:20 | 32.89859 | -112.09946 | 10842 ft | 302 kts | 279° |
| 2026-04-29 23:20 | 32.90272 | -112.12322 | 10667 ft | 291 kts | 279° |
| 2026-04-29 23:21 | 32.90722 | -112.14622 | 10487 ft | 280 kts | 285° |
| 2026-04-29 23:21 | 32.91519 | -112.16708 | 10314 ft | 274 kts | 297° |
| 2026-04-29 23:21 | 32.92649 | -112.18515 | 10170 ft | 271 kts | 307° |
| 2026-04-29 23:21 | 32.93918 | -112.20159 | 10046 ft | 267 kts | 309° |
| 2026-04-29 23:22 | 32.95194 | -112.21767 | 9881 ft | 267 kts | 309° |
| 2026-04-29 23:22 | 32.96470 | -112.23373 | 9521 ft | 266 kts | 309° |
| 2026-04-29 23:22 | 32.97737 | -112.24974 | 9196 ft | 264 kts | 309° |
| 2026-04-29 23:22 | 32.98992 | -112.26564 | 8881 ft | 262 kts | 310° |
| 2026-04-29 23:23 | 33.00233 | -112.28140 | 8586 ft | 260 kts | 310° |
| 2026-04-29 23:23 | 33.01469 | -112.29710 | 8292 ft | 259 kts | 310° |
| 2026-04-29 23:23 | 33.02698 | -112.31274 | 8002 ft | 258 kts | 310° |
| 2026-04-29 23:23 | 33.03923 | -112.32834 | 7709 ft | 258 kts | 310° |
| 2026-04-29 23:24 | 33.05147 | -112.34395 | 7414 ft | 257 kts | 310° |
| 2026-04-29 23:24 | 33.06366 | -112.35949 | 7131 ft | 256 kts | 311° |
| 2026-04-29 23:24 | 33.07583 | -112.37498 | 6842 ft | 255 kts | 311° |
| 2026-04-29 23:24 | 33.08798 | -112.39049 | 6554 ft | 256 kts | 311° |
| 2026-04-29 23:25 | 33.10019 | -112.40605 | 6266 ft | 257 kts | 311° |
| 2026-04-29 23:25 | 33.11237 | -112.42156 | 5964 ft | 256 kts | 311° |
| 2026-04-29 23:25 | 33.12508 | -112.43639 | 5682 ft | 255 kts | 317° |
| 2026-04-29 23:25 | 33.13942 | -112.44896 | 5387 ft | 256 kts | 326° |
| 2026-04-29 23:26 | 33.15471 | -112.45993 | 5098 ft | 257 kts | 327° |
| 2026-04-29 23:26 | 33.17008 | -112.47052 | 4782 ft | 252 kts | 327° |
| 2026-04-29 23:26 | 33.18490 | -112.48075 | 4471 ft | 239 kts | 327° |
| 2026-04-29 23:26 | 33.19885 | -112.49042 | 4232 ft | 224 kts | 327° |
| 2026-04-29 23:27 | 33.21192 | -112.49948 | 4084 ft | 213 kts | 326° |
| 2026-04-29 23:27 | 33.22466 | -112.50840 | 4074 ft | 211 kts | 326° |
| 2026-04-29 23:27 | 33.23306 | -112.51432 | 4049 ft | 212 kts | 327° |
| 2026-04-29 23:27 | 33.25032 | -112.52604 | 4002 ft | 215 kts | 333° |
| 2026-04-29 23:28 | 33.26002 | -112.52829 | 3965 ft | 218 kts | 358° |
| 2026-04-29 23:28 | 33.27436 | -112.52222 | 3908 ft | 224 kts | 32° |
| 2026-04-29 23:28 | 33.28648 | -112.51066 | 3812 ft | 217 kts | 39° |
| 2026-04-29 23:28 | 33.29754 | -112.49925 | 3677 ft | 202 kts | 39° |
| 2026-04-29 23:29 | 33.30770 | -112.48881 | 3509 ft | 184 kts | 39° |
| 2026-04-29 23:29 | 33.31713 | -112.47920 | 3375 ft | 176 kts | 38° |
| 2026-04-29 23:29 | 33.32643 | -112.46977 | 3187 ft | 174 kts | 40° |
| 2026-04-29 23:29 | 33.33515 | -112.45992 | 2976 ft | 170 kts | 42° |
| 2026-04-29 23:30 | 33.34359 | -112.45009 | 2722 ft | 169 kts | 41° |
| 2026-04-29 23:30 | 33.35224 | -112.44069 | 2482 ft | 168 kts | 38° |
| 2026-04-29 23:30 | 33.36133 | -112.43196 | 2298 ft | 168 kts | 35° |
| 2026-04-29 23:30 | 33.37077 | -112.42377 | 2123 ft | 168 kts | 34° |
| 2026-04-29 23:31 | 33.38026 | -112.41576 | 1885 ft | 167 kts | 34° |
| 2026-04-29 23:31 | 33.38941 | -112.40715 | 1641 ft | 166 kts | 37° |
| 2026-04-29 23:31 | 33.39841 | -112.39843 | 1447 ft | 166 kts | 37° |
| 2026-04-29 23:31 | 33.40755 | -112.38987 | 1231 ft | 166 kts | 36° |
| 2026-04-29 23:32 | 33.41664 | -112.38150 | 987 ft | 162 kts | 34° |
| 2026-04-29 23:32 | 33.42378 | -112.37495 | 985 ft | 87 kts | 38° |
| 2026-04-29 23:32 | 33.42621 | -112.37267 | 989 ft | 20 kts | 38° |
| 2026-04-29 23:32 | 33.42746 | -112.37150 | 985 ft | 19 kts | 38° |
| 2026-04-29 23:33 | 33.42805 | -112.37078 | 983 ft | 10 kts | 78° |
| 2026-04-29 23:33 | 33.42781 | -112.37005 | 984 ft | 6 kts | 136° |